Time;durP1;ratioP1;P1;durP2;ratioP2;P2;SDS_P1;SDS_P2;PMS_P1;PMS_P2;Temp;Humidity;BMP_temperature;BMP_pressure;BME280_temperature;BME280_humidity;BME280_pressure;Samples;Min_cycle;Max_cycle;Signal;HPM_P1;HPM_P2
2021/09/04 00:00:49;;;;;;;0.30;0.30;;;;;;;7.35;73.92;98256.13;5032613;28;20436;-66
2021/09/04 00:03:15;;;;;;;0.30;0.30;;;;;;;7.45;74.33;98264.03;5033205;28;20045;-63
2021/09/04 00:05:43;;;;;;;0.30;0.30;;;;;;;7.52;74.39;98258.84;5051171;28;20400;-65
2021/09/04 00:08:09;;;;;;;0.20;0.20;;;;;;;7.34;74.66;98262.50;5050051;28;20524;-64
2021/09/04 00:10:35;;;;;;;0.30;0.30;;;;;;;7.30;74.50;98261.16;5051162;28;20056;-64
2021/09/04 00:13:04;;;;;;;0.30;0.30;;;;;;;7.45;74.31;98269.41;5033385;28;20066;-63
2021/09/04 00:15:30;;;;;;;0.30;0.30;;;;;;;7.49;74.61;98279.69;5049680;28;20048;-65
2021/09/04 00:17:56;;;;;;;0.30;0.30;;;;;;;7.50;74.40;98272.47;5049211;28;20060;-64
2021/09/04 00:20:21;;;;;;;0.30;0.30;;;;;;;7.43;74.13;98271.44;5049108;28;20554;-63
2021/09/04 00:22:47;;;;;;;0.30;0.30;;;;;;;7.42;74.04;98275.97;5033027;28;20049;-64
2021/09/04 00:25:14;;;;;;;0.30;0.30;;;;;;;7.47;73.94;98279.00;5050577;28;20076;-64
2021/09/04 00:27:40;;;;;;;0.30;0.30;;;;;;;7.42;74.19;98275.97;5049295;28;20045;-64
2021/09/04 00:30:06;;;;;;;0.30;0.30;;;;;;;7.44;74.32;98290.09;5032626;28;20075;-65
2021/09/04 00:32:32;;;;;;;0.30;0.30;;;;;;;7.48;74.45;98287.91;5049256;28;20455;-65
2021/09/04 00:34:58;;;;;;;0.30;0.30;;;;;;;7.49;74.70;98287.75;5050474;28;20037;-63
2021/09/04 00:37:23;;;;;;;0.30;0.30;;;;;;;7.49;74.52;98290.44;5048851;28;20084;-65
2021/09/04 00:39:49;;;;;;;0.30;0.30;;;;;;;7.38;74.47;98288.03;5050651;28;20036;-63
2021/09/04 00:42:20;;;;;;;0.30;0.30;;;;;;;7.30;74.78;98298.78;5048785;28;20095;-65
2021/09/04 00:44:46;;;;;;;0.30;0.30;;;;;;;7.26;74.31;98289.38;5049090;28;20044;-66
2021/09/04 00:47:11;;;;;;;0.30;0.30;;;;;;;7.31;74.33;98295.09;5050502;28;20064;-64
2021/09/04 00:49:37;;;;;;;0.30;0.30;;;;;;;7.21;75.28;98299.78;5050207;28;20045;-64
2021/09/04 00:52:05;;;;;;;0.30;0.30;;;;;;;7.21;75.05;98300.63;5050082;28;20044;-64
2021/09/04 00:54:31;;;;;;;0.30;0.30;;;;;;;7.30;74.35;98312.22;5050332;28;20044;-63
2021/09/04 00:56:57;;;;;;;0.30;0.30;;;;;;;7.20;74.48;98307.00;5049081;28;20033;-66
2021/09/04 00:59:25;;;;;;;0.30;0.30;;;;;;;7.13;74.71;98308.66;5049200;28;20170;-64
2021/09/04 01:01:51;;;;;;;0.30;0.30;;;;;;;7.19;74.36;98313.38;5048807;28;20079;-63
2021/09/04 01:04:19;;;;;;;0.30;0.30;;;;;;;7.19;74.41;98307.16;5048765;28;20045;-64
2021/09/04 01:06:46;;;;;;;0.30;0.30;;;;;;;7.11;75.23;98315.19;5050284;28;20122;-65
2021/09/04 01:09:11;;;;;;;0.30;0.30;;;;;;;7.13;75.09;98311.34;5034417;28;20588;-63
2021/09/04 01:11:37;;;;;;;0.30;0.30;;;;;;;7.19;74.73;98315.22;5054290;28;20100;-66
2021/09/04 01:14:04;;;;;;;0.30;0.30;;;;;;;7.17;74.76;98319.94;5053083;28;20181;-66
2021/09/04 01:16:42;;;;;;;0.30;0.30;;;;;;;7.23;74.92;98324.63;5054346;28;20139;-64
2021/09/04 01:19:08;;;;;;;0.30;0.30;;;;;;;7.23;74.63;98324.63;5052973;28;20079;-66
2021/09/04 01:21:35;;;;;;;0.30;0.30;;;;;;;7.20;73.91;98324.94;5052657;28;20048;-64
2021/09/04 01:24:03;;;;;;;0.30;0.30;;;;;;;7.10;74.30;98330.47;5052718;28;20047;-64
2021/09/04 01:26:29;;;;;;;0.30;0.30;;;;;;;7.09;74.25;98327.94;5036363;28;20041;-64
2021/09/04 01:28:58;;;;;;;0.30;0.30;;;;;;;7.12;74.91;98331.13;5054310;28;20073;-63
2021/09/04 01:31:25;;;;;;;0.30;0.30;;;;;;;7.18;74.25;98329.66;5036857;28;20036;-65
2021/09/04 01:33:51;;;;;;;0.30;0.30;;;;;;;7.12;74.63;98323.06;5054358;28;20076;-63
2021/09/04 01:36:36;;;;;;;0.30;0.30;;;;;;;7.15;74.83;98321.91;5052779;28;20445;-64
2021/09/04 01:39:04;;;;;;;0.30;0.30;;;;;;;7.16;74.61;98320.91;5035906;28;20057;-64
2021/09/04 01:41:30;;;;;;;0.30;0.30;;;;;;;7.13;74.75;98323.91;5053855;28;20052;-63
2021/09/04 01:43:56;;;;;;;0.30;0.30;;;;;;;7.00;75.28;98322.53;5036108;28;20052;-63
2021/09/04 01:46:22;;;;;;;0.30;0.30;;;;;;;7.10;75.42;98324.25;5052416;28;20431;-64
2021/09/04 01:48:48;;;;;;;0.30;0.30;;;;;;;7.08;74.77;98320.88;5052246;28;20542;-64
2021/09/04 01:51:14;;;;;;;0.30;0.30;;;;;;;7.00;74.70;98335.97;5052513;28;20040;-65
2021/09/04 01:53:40;;;;;;;0.30;0.30;;;;;;;6.93;75.27;98342.97;5052499;28;20053;-63
2021/09/04 01:56:06;;;;;;;0.30;0.30;;;;;;;6.94;74.84;98336.59;5052135;28;20403;-65
2021/09/04 01:58:32;;;;;;;0.30;0.30;;;;;;;6.97;75.04;98335.44;5035690;28;20664;-64
2021/09/04 02:00:58;;;;;;;0.30;0.30;;;;;;;6.98;74.88;98346.06;5053669;28;20361;-64
2021/09/04 02:03:24;;;;;;;0.30;0.30;;;;;;;6.97;74.98;98351.56;5035362;28;20543;-64
2021/09/04 02:05:49;;;;;;;0.30;0.30;;;;;;;6.98;74.92;98353.25;5051629;28;20052;-64
2021/09/04 02:08:15;;;;;;;0.30;0.30;;;;;;;7.06;74.59;98345.25;5035569;28;20049;-63
2021/09/04 02:10:41;;;;;;;0.30;0.30;;;;;;;7.04;74.23;98341.88;5036087;28;20041;-63
2021/09/04 02:13:07;;;;;;;0.30;0.30;;;;;;;7.02;74.24;98349.25;5053494;28;20430;-64
2021/09/04 02:15:32;;;;;;;0.30;0.30;;;;;;;6.99;74.66;98334.28;5052184;28;20087;-65
2021/09/04 02:17:59;;;;;;;0.30;0.30;;;;;;;6.92;74.89;98354.75;5051867;28;20045;-64
2021/09/04 02:20:25;;;;;;;0.30;0.30;;;;;;;6.91;74.74;98336.94;5051921;28;20061;-65
2021/09/04 02:22:51;;;;;;;0.30;0.30;;;;;;;6.92;74.09;98348.53;5051736;28;20129;-64
2021/09/04 02:25:18;;;;;;;0.30;0.30;;;;;;;7.01;73.82;98353.75;5035582;28;20049;-66
2021/09/04 02:27:43;;;;;;;0.30;0.30;;;;;;;6.97;74.03;98347.03;5051746;28;20129;-63
2021/09/04 02:30:10;;;;;;;0.30;0.30;;;;;;;6.93;73.94;98356.41;5051979;28;20072;-66
2021/09/04 02:32:36;;;;;;;0.30;0.30;;;;;;;6.92;74.23;98361.97;5053159;28;20056;-64
2021/09/04 02:35:04;;;;;;;0.30;0.30;;;;;;;6.97;74.05;98357.78;5035231;28;20041;-64
2021/09/04 02:37:32;;;;;;;0.30;0.30;;;;;;;6.91;74.39;98369.19;5051239;28;20059;-65
2021/09/04 02:40:00;;;;;;;0.30;0.30;;;;;;;6.81;74.62;98365.75;5051072;28;20107;-67
2021/09/04 02:42:28;;;;;;;0.30;0.30;;;;;;;6.90;74.40;98362.09;5035190;28;20140;-63
2021/09/04 02:44:54;;;;;;;0.30;0.30;;;;;;;6.78;74.67;98368.75;5034856;28;20144;-64
2021/09/04 02:47:20;;;;;;;0.30;0.30;;;;;;;6.86;74.36;98367.97;5034965;28;20051;-66
2021/09/04 02:49:47;;;;;;;0.30;0.30;;;;;;;6.91;74.21;98374.56;5052364;28;20115;-65
2021/09/04 02:52:14;;;;;;;0.30;0.30;;;;;;;6.84;74.51;98373.50;5052554;28;20056;-64
2021/09/04 02:54:40;;;;;;;0.30;0.30;;;;;;;6.83;74.42;98374.50;5051116;28;20053;-64
2021/09/04 02:57:07;;;;;;;0.30;0.30;;;;;;;6.74;74.68;98378.13;5050183;28;20492;-63
2021/09/04 02:59:34;;;;;;;0.30;0.30;;;;;;;6.81;74.21;98373.81;5051719;28;20036;-64
2021/09/04 03:02:00;;;;;;;0.30;0.30;;;;;;;6.68;74.30;98386.81;5051983;28;20377;-65
2021/09/04 03:04:25;;;;;;;0.30;0.30;;;;;;;6.80;73.85;98387.38;5050555;28;20053;-62
2021/09/04 03:06:52;;;;;;;0.30;0.30;;;;;;;6.82;74.23;98391.63;5050679;28;20056;-64
2021/09/04 03:09:18;;;;;;;0.30;0.30;;;;;;;6.84;74.04;98389.63;5017417;28;20056;-64
2021/09/04 03:11:45;;;;;;;0.30;0.30;;;;;;;6.75;73.58;98391.41;5034160;28;20271;-65
2021/09/04 03:14:11;;;;;;;0.30;0.30;;;;;;;6.72;74.02;98397.09;5050760;28;20131;-64
2021/09/04 03:16:37;;;;;;;0.30;0.30;;;;;;;6.77;73.77;98402.00;5050578;28;20037;-64
2021/09/04 03:19:04;;;;;;;0.30;0.30;;;;;;;6.79;73.69;98408.03;5050394;28;20493;-65
2021/09/04 03:21:30;;;;;;;0.30;0.30;;;;;;;6.79;73.27;98412.56;5051803;28;20060;-64
2021/09/04 03:23:56;;;;;;;0.30;0.30;;;;;;;6.78;73.88;98406.38;5033768;28;20077;-66
2021/09/04 03:26:22;;;;;;;0.30;0.30;;;;;;;6.80;73.44;98409.75;5050414;28;20546;-63
2021/09/04 03:28:49;;;;;;;0.30;0.30;;;;;;;6.82;73.38;98410.41;5049929;28;20041;-64
2021/09/04 03:31:15;;;;;;;0.30;0.30;;;;;;;6.91;73.19;98422.03;5033708;28;20052;-64
2021/09/04 03:33:41;;;;;;;0.30;0.30;;;;;;;6.96;73.05;98425.13;5051978;28;20040;-66
2021/09/04 03:36:08;;;;;;;0.40;0.40;;;;;;;6.82;73.55;98423.84;5046413;28;20045;-63
2021/09/04 03:38:34;;;;;;;0.30;0.30;;;;;;;6.86;73.65;98409.09;5031617;28;20530;-64
2021/09/04 03:41:00;;;;;;;0.35;0.35;;;;;;;6.99;73.97;98425.66;5030159;28;20042;-63
2021/09/04 03:43:27;;;;;;;0.30;0.30;;;;;;;7.00;73.85;98432.69;5031905;28;20064;-63
2021/09/04 03:45:55;;;;;;;0.30;0.30;;;;;;;7.07;73.68;98429.38;5031871;28;20041;-64
2021/09/04 03:48:21;;;;;;;0.40;0.40;;;;;;;6.97;74.41;98424.94;5047097;28;20417;-63
2021/09/04 03:50:47;;;;;;;0.40;0.40;;;;;;;7.12;73.15;98421.66;5047352;28;20523;-63
2021/09/04 03:53:13;;;;;;;0.40;0.40;;;;;;;7.28;73.53;98426.28;5047400;28;20056;-63
2021/09/04 03:55:40;;;;;;;0.30;0.30;;;;;;;7.13;73.77;98432.28;5032167;28;20582;-64
2021/09/04 03:58:06;;;;;;;0.40;0.40;;;;;;;7.26;73.26;98431.84;5046760;28;20045;-64
2021/09/04 04:00:32;;;;;;;0.40;0.40;;;;;;;7.33;72.95;98435.56;5050341;28;20044;-65
2021/09/04 04:02:59;;;;;;;0.40;0.40;;;;;;;7.18;73.71;98439.84;5051087;28;20539;-64
2021/09/04 04:05:26;;;;;;;0.40;0.40;;;;;;;7.21;72.98;98444.91;5049793;28;20053;-63
2021/09/04 04:07:52;;;;;;;0.30;0.30;;;;;;;7.20;74.00;98453.97;5051180;28;20041;-65
2021/09/04 04:10:18;;;;;;;0.30;0.30;;;;;;;7.29;73.70;98453.03;5045586;28;20651;-65
2021/09/04 04:12:44;;;;;;;0.30;0.30;;;;;;;7.20;74.22;98448.59;5031249;28;20048;-64
2021/09/04 04:15:10;;;;;;;0.40;0.40;;;;;;;7.25;73.51;98446.28;5029778;28;20053;-64
2021/09/04 04:17:37;;;;;;;0.40;0.40;;;;;;;7.33;73.36;98470.50;5046360;28;20049;-64
2021/09/04 04:20:04;;;;;;;0.30;0.30;;;;;;;7.38;73.71;98460.09;5045781;28;20045;-67
2021/09/04 04:22:31;;;;;;;0.30;0.30;;;;;;;7.33;73.75;98459.75;5046119;28;20067;-65
2021/09/04 04:24:57;;;;;;;0.30;0.30;;;;;;;7.39;74.67;98471.72;5031019;28;20500;-66
2021/09/04 04:27:23;;;;;;;0.30;0.30;;;;;;;7.27;75.61;98479.19;5029180;28;20575;-65
2021/09/04 04:29:49;;;;;;;0.40;0.40;;;;;;;7.23;76.54;98476.00;5045296;28;20081;-70
2021/09/04 04:32:15;;;;;;;0.38;0.38;;;;;;;7.19;77.57;98484.53;5029313;28;20085;-66
2021/09/04 04:34:41;;;;;;;0.38;0.38;;;;;;;7.17;78.20;98491.94;5030418;28;20086;-64
2021/09/04 04:37:08;;;;;;;0.30;0.30;;;;;;;7.17;78.94;98482.03;5029111;28;20041;-65
2021/09/04 04:39:34;;;;;;;0.30;0.30;;;;;;;7.13;79.29;98480.66;5029262;28;20049;-65
2021/09/04 04:42:00;;;;;;;0.30;0.30;;;;;;;7.18;79.69;98488.22;5029767;28;20037;-67
2021/09/04 04:44:26;;;;;;;0.30;0.30;;;;;;;7.06;80.49;98503.78;5012179;28;20136;-63
2021/09/04 04:46:52;;;;;;;0.30;0.30;;;;;;;7.09;80.36;98497.22;5028792;28;20472;-64
2021/09/04 04:49:19;;;;;;;0.30;0.30;;;;;;;7.07;81.64;98499.25;5012717;28;20140;-64
2021/09/04 04:51:46;;;;;;;0.40;0.40;;;;;;;7.13;81.27;98512.03;5029169;28;20508;-63
2021/09/04 04:54:12;;;;;;;0.30;0.30;;;;;;;7.15;80.06;98510.88;5028679;28;20493;-64
2021/09/04 04:56:39;;;;;;;0.40;0.40;;;;;;;7.11;80.41;98511.38;5045156;28;20477;-64
2021/09/04 04:59:05;;;;;;;0.40;0.40;;;;;;;7.25;80.76;98518.84;5012539;28;20136;-66
2021/09/04 05:01:32;;;;;;;0.40;0.40;;;;;;;7.38;80.67;98516.56;5028692;28;20069;-66
2021/09/04 05:03:58;;;;;;;0.40;0.40;;;;;;;7.72;79.49;98508.53;5012462;28;20073;-67
2021/09/04 05:06:24;;;;;;;0.40;0.40;;;;;;;7.73;76.87;98520.97;5012187;28;20539;-64
2021/09/04 05:08:50;;;;;;;0.40;0.40;;;;;;;7.90;77.39;98513.81;5046080;28;20067;-71
2021/09/04 05:11:15;;;;;;;0.30;0.30;;;;;;;7.82;77.41;98508.38;5029897;28;20056;-64
2021/09/04 05:13:43;;;;;;;0.40;0.40;;;;;;;7.72;78.32;98518.44;5029376;28;20049;-66
2021/09/04 05:16:11;;;;;;;0.40;0.40;;;;;;;7.87;77.93;98516.00;5029391;28;20060;-65
2021/09/04 05:18:36;;;;;;;0.40;0.40;;;;;;;7.97;77.56;98511.31;5030297;28;20459;-68
2021/09/04 05:21:03;;;;;;;0.40;0.40;;;;;;;7.98;77.84;98515.69;5029105;28;20128;-68
2021/09/04 05:23:30;;;;;;;0.40;0.40;;;;;;;8.12;77.73;98525.00;5029194;28;20128;-66
2021/09/04 05:25:58;;;;;;;0.50;0.50;;;;;;;8.38;77.24;98520.38;5044822;28;20538;-65
2021/09/04 05:28:23;;;;;;;0.50;0.50;;;;;;;8.67;75.22;98529.88;5012276;28;20037;-64
2021/09/04 05:30:49;;;;;;;0.40;0.40;;;;;;;8.80;74.84;98530.19;5028984;28;20053;-66
2021/09/04 05:33:15;;;;;;;0.40;0.40;;;;;;;8.82;75.46;98528.19;5011626;28;20551;-64
2021/09/04 05:35:42;;;;;;;0.40;0.40;;;;;;;8.89;74.53;98534.59;5028447;28;20057;-66
2021/09/04 05:38:08;;;;;;;0.40;0.40;;;;;;;9.06;72.60;98529.19;5044672;28;20045;-69
2021/09/04 05:40:34;;;;;;;0.50;0.50;;;;;;;9.73;71.41;98532.47;5028160;28;20041;-67
2021/09/04 05:43:00;;;;;;;0.30;0.30;;;;;;;9.60;70.08;98537.53;5045273;28;20049;-66
2021/09/04 05:45:25;;;;;;;0.30;0.30;;;;;;;9.32;71.82;98535.22;5034495;28;20049;-66
2021/09/04 05:47:51;;;;;;;0.30;0.30;;;;;;;9.10;73.30;98544.84;5023065;28;20029;-67
2021/09/04 05:50:17;;;;;;;0.40;0.40;;;;;;;9.03;72.53;98548.38;5036730;28;20051;-67
2021/09/04 05:52:43;;;;;;;0.50;0.50;;;;;;;9.21;71.80;98548.22;5002596;28;20135;-67
2021/09/04 05:55:09;;;;;;;0.40;0.40;;;;;;;9.12;71.31;98547.38;5054058;28;20064;-68
2021/09/04 05:57:34;;;;;;;0.70;0.70;;;;;;;9.45;70.54;98556.28;5046054;28;20048;-67
2021/09/04 06:00:00;;;;;;;0.80;0.80;;;;;;;10.37;66.67;98552.13;5039940;28;20045;-68
2021/09/04 06:02:26;;;;;;;0.50;0.50;;;;;;;10.54;65.11;98550.16;5049490;28;20056;-72
2021/09/04 06:04:52;;;;;;;0.40;0.40;;;;;;;10.64;65.47;98552.66;5047922;28;20095;-66
2021/09/04 06:07:18;;;;;;;0.30;0.30;;;;;;;10.42;65.75;98553.44;5050047;28;20412;-65
2021/09/04 06:09:43;;;;;;;0.40;0.40;;;;;;;10.04;66.62;98551.41;5038288;28;20103;-67
2021/09/04 06:12:09;;;;;;;0.40;0.40;;;;;;;10.21;67.98;98552.19;5034308;28;20043;-68
2021/09/04 06:14:35;;;;;;;0.50;0.50;;;;;;;10.45;65.02;98558.50;5027608;28;20102;-65
2021/09/04 06:17:01;;;;;;;0.40;0.40;;;;;;;10.57;64.70;98546.28;5031646;28;20041;-69
2021/09/04 06:19:27;;;;;;;0.50;0.50;;;;;;;10.96;63.12;98562.38;5023464;28;20508;-68
2021/09/04 06:21:53;;;;;;;0.50;0.50;;;;;;;11.69;60.82;98552.75;5046649;28;20041;-65
2021/09/04 06:24:18;;;;;;;0.40;0.40;;;;;;;11.73;61.15;98562.19;5045342;28;20041;-69
2021/09/04 06:26:44;;;;;;;0.40;0.40;;;;;;;11.64;60.75;98560.59;5030040;28;20068;-69
2021/09/04 06:29:10;;;;;;;0.30;0.30;;;;;;;11.19;60.15;98559.69;5063526;28;20037;-71
2021/09/04 06:31:36;;;;;;;0.30;0.30;;;;;;;11.11;61.49;98559.72;5047441;28;20052;-70
2021/09/04 06:34:02;;;;;;;0.30;0.30;;;;;;;10.71;62.57;98552.75;5031201;28;20037;-73
2021/09/04 06:36:27;;;;;;;0.30;0.30;;;;;;;10.33;64.08;98567.00;5063717;28;20124;-65
2021/09/04 06:38:53;;;;;;;0.30;0.30;;;;;;;10.00;68.68;98570.81;5030339;28;20067;-70
2021/09/04 06:41:19;;;;;;;0.30;0.30;;;;;;;9.72;68.32;98568.53;5018565;28;20050;-70
2021/09/04 06:43:45;;;;;;;0.40;0.40;;;;;;;9.31;69.94;98565.91;5021054;28;20040;-71
2021/09/04 06:46:10;;;;;;;0.40;0.40;;;;;;;9.74;69.51;98569.22;5049109;28;20092;-69
2021/09/04 06:48:36;;;;;;;0.40;0.40;;;;;;;9.73;69.08;98570.25;5028600;28;20037;-72
2021/09/04 06:51:02;;;;;;;0.30;0.30;;;;;;;9.80;69.37;98571.22;5039296;28;20044;-69
2021/09/04 06:53:28;;;;;;;0.30;0.30;;;;;;;9.35;69.76;98571.81;5029971;28;20033;-68
2021/09/04 06:55:54;;;;;;;0.40;0.40;;;;;;;9.57;69.34;98570.25;5047675;28;20055;-67
2021/09/04 06:58:20;;;;;;;0.40;0.40;;;;;;;9.72;68.12;98576.63;5049606;28;20048;-68
2021/09/04 07:00:46;;;;;;;1.00;1.00;;;;;;;10.19;66.57;98569.56;5037324;28;20052;-67
2021/09/04 07:03:12;;;;;;;0.60;0.60;;;;;;;11.35;63.39;98583.88;5047226;28;20174;-68
2021/09/04 07:05:38;;;;;;;0.50;0.50;;;;;;;11.24;60.87;98578.91;5047653;28;20128;-67
2021/09/04 07:08:04;;;;;;;0.40;0.40;;;;;;;10.92;60.83;98576.44;5044441;28;20052;-69
2021/09/04 07:10:31;;;;;;;0.30;0.30;;;;;;;10.47;62.81;98578.09;5043452;28;20143;-67
2021/09/04 07:12:56;;;;;;;0.30;0.30;;;;;;;10.10;64.95;98571.47;5040547;28;20044;-69
2021/09/04 07:15:22;;;;;;;0.30;0.30;;;;;;;9.77;64.59;98576.97;5044595;28;20551;-68
2021/09/04 07:17:48;;;;;;;0.70;0.70;;;;;;;10.07;62.89;98593.41;5061584;28;20071;-67
2021/09/04 07:20:14;;;;;;;1.40;1.40;;;;;;;11.18;60.73;98585.03;5028677;28;20082;-68
2021/09/04 07:22:39;;;;;;;1.92;1.92;;;;;;;13.21;55.39;98591.78;5044817;28;20037;-69
2021/09/04 07:25:06;;;;;;;1.70;1.70;;;;;;;15.23;48.48;98593.59;5031113;28;20044;-68
2021/09/04 07:27:31;;;;;;;1.60;1.60;;;;;;;16.19;45.93;98595.88;5046698;28;20041;-69
2021/09/04 07:29:57;;;;;;;1.80;1.80;;;;;;;16.73;45.00;98597.38;5031724;28;20611;-68
2021/09/04 07:32:23;;;;;;;1.70;1.70;;;;;;;17.32;42.10;98593.50;5045942;28;20049;-68
2021/09/04 07:34:49;;;;;;;0.90;0.90;;;;;;;17.07;41.93;98593.44;5044408;28;20048;-68
2021/09/04 07:37:14;;;;;;;0.90;0.90;;;;;;;17.32;43.25;98596.22;5029301;28;20040;-68
2021/09/04 07:39:40;;;;;;;0.75;0.75;;;;;;;16.59;44.04;98591.13;5028823;28;20049;-65
2021/09/04 07:42:06;;;;;;;1.30;1.30;;;;;;;17.36;42.09;98592.00;5012974;28;20064;-70
2021/09/04 07:44:32;;;;;;;1.50;1.50;;;;;;;18.65;40.13;98590.38;5023425;28;20059;-71
2021/09/04 07:46:58;;;;;;;1.40;1.40;;;;;;;19.64;37.44;98592.81;5044175;28;20088;-70
2021/09/04 07:49:23;;;;;;;1.48;1.48;;;;;;;20.29;36.88;98592.69;5046281;28;20041;-72
2021/09/04 07:51:49;;;;;;;1.50;1.50;;;;;;;20.73;35.11;98595.88;5048274;28;20496;-69
2021/09/04 07:54:15;;;;;;;1.35;1.35;;;;;;;20.10;36.07;98596.66;5046916;28;20646;-67
2021/09/04 07:56:41;;;;;;;0.95;0.95;;;;;;;20.42;35.18;98600.69;5045760;28;20049;-72
2021/09/04 07:59:09;;;;;;;1.42;1.42;;;;;;;20.75;34.97;98591.00;5030279;28;20048;-69
2021/09/04 08:01:35;;;;;;;0.20;0.20;;;;;;;19.91;36.06;98587.72;5048834;28;20088;-70
2021/09/04 08:04:01;;;;;;;1.60;1.60;;;;;;;19.89;34.93;98593.44;5003916;28;20033;-72
2021/09/04 08:06:29;;;;;;;1.40;1.40;;;;;;;19.13;36.97;98595.03;5028077;28;20037;-73
2021/09/04 08:08:58;;;;;;;0.20;0.20;;;;;;;19.83;36.23;98597.13;5030799;28;20042;-72
2021/09/04 08:11:23;;;;;;;1.42;1.42;;;;;;;19.56;37.16;98595.84;5046151;28;20040;-70
2021/09/04 08:13:49;;;;;;;1.20;1.20;;;;;;;19.73;37.94;98596.88;5051297;28;20541;-76
2021/09/04 08:16:18;;;;;;;0.20;0.20;;;;;;;18.87;39.04;98587.19;5042144;28;20536;-74
2021/09/04 08:18:44;;;;;;;0.55;0.55;;;;;;;18.87;38.37;98601.72;5032275;28;20036;-75
2021/09/04 08:21:10;;;;;;;0.20;0.20;;;;;;;18.41;40.10;98594.84;5017614;28;20462;-76
2021/09/04 08:23:36;;;;;;;0.20;0.20;;;;;;;16.49;41.74;98590.75;5050145;28;20084;-76
2021/09/04 08:26:01;;;;;;;0.13;0.13;;;;;;;16.09;43.80;98608.06;5016096;28;20084;-67
2021/09/04 08:28:33;;;;;;;0.20;0.20;;;;;;;14.83;48.27;98596.22;5012599;28;20089;-68
2021/09/04 08:30:59;;;;;;;0.20;0.20;;;;;;;14.05;49.10;98604.59;5043007;28;20803;-69
2021/09/04 08:33:25;;;;;;;0.20;0.20;;;;;;;13.64;50.66;98607.22;4988832;28;20068;-70
2021/09/04 08:35:51;;;;;;;0.40;0.40;;;;;;;13.78;50.54;98619.84;5047490;28;20045;-68
2021/09/04 08:38:17;;;;;;;1.08;1.08;;;;;;;15.22;47.19;98616.41;5013420;28;20091;-67
2021/09/04 08:40:46;;;;;;;1.30;1.30;;;;;;;15.80;45.66;98619.44;5026174;28;20049;-73
2021/09/04 08:43:12;;;;;;;1.90;1.90;;;;;;;18.05;40.33;98623.84;4987710;28;20055;-70
2021/09/04 08:45:39;;;;;;;1.05;1.05;;;;;;;19.10;37.65;98620.16;5021432;28;20124;-69
2021/09/04 08:48:07;;;;;;;1.63;1.63;;;;;;;19.63;37.33;98618.56;5047310;28;20048;-70
2021/09/04 08:50:33;;;;;;;1.60;1.60;;;;;;;19.79;35.43;98623.38;5011090;28;20524;-71
2021/09/04 08:52:59;;;;;;;1.58;1.58;;;;;;;19.57;36.12;98614.00;5029846;28;20033;-73
2021/09/04 08:55:25;;;;;;;0.90;0.90;;;;;;;20.20;34.50;98616.13;5025857;28;20071;-71
2021/09/04 08:57:51;;;;;;;1.27;1.27;;;;;;;20.59;33.55;98610.97;5029403;28;20041;-71
2021/09/04 09:00:31;;;;;;;1.70;1.70;;;;;;;21.43;32.46;98612.16;5010820;28;20502;-73
2021/09/04 09:02:58;;;;;;;1.90;1.90;;;;;;;22.03;32.13;98621.69;5026751;28;20068;-71
2021/09/04 09:05:24;;;;;;;1.65;1.65;;;;;;;22.67;31.74;98615.78;5025951;28;20484;-73
2021/09/04 09:07:49;;;;;;;1.50;1.50;;;;;;;22.65;30.89;98622.63;5026890;28;20072;-73
2021/09/04 09:10:21;;;;;;;1.60;1.60;;;;;;;22.76;30.21;98619.72;5043643;28;20132;-72
2021/09/04 09:12:48;;;;;;;0.20;0.20;;;;;;;21.97;30.48;98616.34;5011431;28;20144;-73
2021/09/04 09:15:21;;;;;;;1.70;1.70;;;;;;;22.17;30.69;98613.13;5045801;28;20067;-71
2021/09/04 09:18:14;;;;;;;0.20;0.20;;;;;;;21.15;31.28;98621.19;5045615;28;20060;-72
2021/09/04 09:20:42;;;;;;;0.30;0.30;;;;;;;19.19;34.96;98626.13;5042816;28;20128;-71
2021/09/04 09:23:11;;;;;;;0.20;0.20;;;;;;;18.35;36.27;98622.28;5028327;28;20050;-73
2021/09/04 09:25:37;;;;;;;0.10;0.10;;;;;;;16.97;40.04;98620.41;5062361;28;20059;-71
2021/09/04 09:28:13;;;;;;;0.20;0.20;;;;;;;16.02;46.42;98634.50;5045546;28;20136;-69
2021/09/04 09:30:44;;;;;;;1.60;1.60;;;;;;;17.58;44.37;98634.28;5033151;28;20081;-72
2021/09/04 09:33:13;;;;;;;1.63;1.63;;;;;;;19.25;39.42;98644.41;5049508;28;20054;-72
2021/09/04 09:35:42;;;;;;;1.30;1.30;;;;;;;20.65;37.94;98640.22;5049097;28;20136;-72
2021/09/04 09:38:11;;;;;;;0.50;0.50;;;;;;;21.15;36.96;98636.84;5049198;28;20045;-72
2021/09/04 09:40:37;;;;;;;0.20;0.20;;;;;;;18.22;42.47;98642.44;5016403;28;20049;-72
2021/09/04 09:43:15;;;;;;;0.20;0.20;;;;;;;17.21;47.51;98643.38;5033953;28;20037;-71
2021/09/04 09:45:52;;;;;;;0.10;0.10;;;;;;;15.63;48.55;98646.22;5033386;28;20046;-72
2021/09/04 09:48:25;;;;;;;0.10;0.10;;;;;;;14.31;53.20;98657.44;5032942;28;20408;-71
2021/09/04 09:50:52;;;;;;;0.20;0.20;;;;;;;13.93;53.43;98671.38;5016439;28;20056;-72
2021/09/04 09:53:19;;;;;;;0.10;0.10;;;;;;;13.58;54.66;98668.59;5049379;28;20137;-71
2021/09/04 09:55:47;;;;;;;0.20;0.20;;;;;;;13.24;58.26;98675.56;5032502;28;20416;-72
2021/09/04 09:58:14;;;;;;;0.20;0.20;;;;;;;13.07;58.91;98678.66;5032575;28;20067;-71
2021/09/04 10:00:40;;;;;;;0.20;0.20;;;;;;;12.95;59.48;98670.19;5032306;28;20068;-72
2021/09/04 10:03:07;;;;;;;1.75;1.75;;;;;;;14.81;54.36;98674.47;5015989;28;20095;-70
2021/09/04 10:05:34;;;;;;;1.60;1.60;;;;;;;17.28;48.67;98671.50;5032548;28;20163;-71
2021/09/04 10:08:00;;;;;;;1.50;1.50;;;;;;;18.95;44.20;98672.59;5032574;28;20081;-72
2021/09/04 10:10:44;;;;;;;1.55;1.55;;;;;;;20.37;40.58;98674.72;5065754;28;20219;-72
2021/09/04 10:13:14;;;;;;;1.27;1.27;;;;;;;21.08;37.76;98674.66;5032394;28;20053;-72
2021/09/04 10:15:43;;;;;;;1.30;1.30;;;;;;;21.73;38.56;98666.03;5032640;28;20115;-72
2021/09/04 10:18:09;;;;;;;1.20;1.20;;;;;;;22.09;36.12;98664.72;5015824;28;20284;-72
2021/09/04 10:20:36;;;;;;;1.30;1.30;;;;;;;23.47;33.17;98674.09;5034577;28;20068;-72
2021/09/04 10:23:30;;;;;;;0.20;0.20;;;;;;;20.46;38.95;98684.25;5018418;28;20053;-72
2021/09/04 10:26:22;;;;;;;0.40;0.40;;;;;;;20.22;37.88;98677.09;5017870;28;20136;-72
2021/09/04 10:29:13;;;;;;;1.20;1.20;;;;;;;21.65;35.31;98670.03;5001425;28;20464;-72
2021/09/04 10:32:01;;;;;;;0.98;0.98;;;;;;;21.30;36.63;98681.13;4986034;28;20095;-72
2021/09/04 10:34:39;;;;;;;1.20;1.20;;;;;;;21.85;36.34;98685.22;5034737;28;20049;-74
2021/09/04 10:37:16;;;;;;;1.15;1.15;;;;;;;21.85;36.87;98677.78;5035057;28;20555;-73
2021/09/04 10:39:51;;;;;;;1.00;1.00;;;;;;;22.47;33.17;98684.34;5034701;28;20045;-72
2021/09/04 10:42:20;;;;;;;1.00;1.00;;;;;;;21.60;34.37;98688.34;5066482;28;20050;-74
2021/09/04 10:44:47;;;;;;;1.10;1.10;;;;;;;22.30;32.95;98685.16;5017677;28;20080;-73
2021/09/04 10:47:14;;;;;;;1.15;1.15;;;;;;;22.86;32.06;98685.19;5034223;28;20103;-73
2021/09/04 10:49:40;;;;;;;1.10;1.10;;;;;;;23.03;31.73;98679.63;5051660;28;20052;-72
2021/09/04 10:52:08;;;;;;;1.10;1.10;;;;;;;23.30;30.53;98675.03;5034710;28;20076;-72
2021/09/04 10:54:59;;;;;;;0.52;0.52;;;;;;;23.30;31.10;98674.19;5068091;28;20065;-72
2021/09/04 10:57:26;;;;;;;0.20;0.20;;;;;;;21.83;31.54;98671.72;5051308;28;20076;-71
2021/09/04 11:00:09;;;;;;;1.50;1.50;;;;;;;20.80;33.61;98673.50;5035007;28;20052;-73
2021/09/04 11:02:43;;;;;;;0.20;0.20;;;;;;;19.50;35.43;98675.25;5035757;28;20401;-73
2021/09/04 11:05:33;;;;;;;0.20;0.20;;;;;;;19.23;36.92;98671.19;5051518;28;20038;-73
2021/09/04 11:08:01;;;;;;;0.10;0.10;;;;;;;18.44;38.71;98676.50;5048736;28;20053;-72
2021/09/04 11:10:27;;;;;;;0.10;0.10;;;;;;;17.73;38.21;98674.97;5032471;28;20122;-72
2021/09/04 11:13:13;;;;;;;0.20;0.20;;;;;;;17.43;39.29;98695.78;5031840;28;20057;-72
2021/09/04 11:15:44;;;;;;;0.20;0.20;;;;;;;16.92;40.34;98689.28;5043375;28;20121;-71
2021/09/04 11:18:14;;;;;;;0.22;0.22;;;;;;;16.58;40.17;98684.97;5031097;28;20046;-72
2021/09/04 11:20:52;;;;;;;0.20;0.20;;;;;;;16.96;39.28;98685.06;5031082;28;20045;-71
2021/09/04 11:23:36;;;;;;;0.30;0.30;;;;;;;17.53;38.20;98690.69;5048370;28;20115;-72
2021/09/04 11:26:05;;;;;;;0.90;0.90;;;;;;;18.45;37.13;98691.03;5014755;28;20094;-71
2021/09/04 11:28:32;;;;;;;0.20;0.20;;;;;;;17.91;38.11;98687.91;5031049;28;20381;-71
2021/09/04 11:30:58;;;;;;;0.13;0.13;;;;;;;17.24;39.90;98690.22;5031425;28;20447;-71
2021/09/04 11:33:27;;;;;;;0.20;0.20;;;;;;;16.36;42.70;98707.03;5014496;28;20148;-71
2021/09/04 11:35:55;;;;;;;0.20;0.20;;;;;;;15.23;45.23;98721.56;5030859;28;20080;-71
2021/09/04 11:38:21;;;;;;;0.20;0.20;;;;;;;14.35;50.28;98721.25;5030776;28;20324;-72
2021/09/04 11:40:47;;;;;;;0.20;0.20;;;;;;;13.80;53.37;98741.91;5063783;28;20064;-71